createdAt,value
2018-08-07T00:00:26.345Z,99.90
2018-08-07T00:02:55.795Z,99.90
2018-08-07T00:07:55.733Z,99.90
2018-08-07T00:10:25.875Z,99.90
2018-08-07T00:12:55.219Z,99.90
2018-08-07T00:15:26.351Z,99.90
2018-08-07T00:17:55.503Z,99.90
2018-08-07T00:20:24.743Z,99.90
2018-08-07T00:22:53.920Z,99.90
2018-08-07T00:25:23.199Z,99.90
2018-08-07T00:27:52.439Z,99.90
2018-08-07T00:30:21.692Z,99.90
2018-08-07T00:32:50.736Z,99.90
2018-08-07T00:35:20.420Z,99.90
2018-08-07T00:37:49.680Z,99.90
2018-08-07T00:40:19.309Z,99.90
2018-08-07T00:42:48.865Z,99.90
2018-08-07T00:45:19.056Z,99.90
2018-08-07T00:47:48.466Z,99.90
2018-08-07T00:50:20.091Z,99.90
2018-08-07T00:52:50.060Z,99.90
2018-08-07T00:55:19.563Z,99.90
2018-08-07T00:57:49.503Z,99.90
2018-08-07T01:00:18.821Z,99.90
2018-08-07T01:02:47.958Z,99.90
2018-08-07T01:05:18.117Z,99.90
2018-08-07T01:07:47.509Z,99.90
2018-08-07T01:10:17.900Z,99.90
2018-08-07T01:12:47.187Z,99.90
2018-08-07T01:15:18.831Z,99.90
2018-08-07T01:17:48.339Z,99.90
2018-08-07T01:20:19.200Z,99.90
2018-08-07T01:25:20.404Z,99.90
2018-08-07T01:27:49.713Z,99.90
2018-08-07T01:30:24.183Z,99.90
2018-08-07T01:32:53.548Z,99.90
2018-08-07T01:35:22.819Z,99.90
2018-08-07T01:37:52.288Z,99.90
2018-08-07T01:40:22.258Z,99.90
2018-08-07T01:42:51.460Z,99.90
2018-08-07T01:45:20.861Z,99.90
2018-08-07T01:47:50.160Z,99.90
2018-08-07T01:50:19.469Z,99.90
2018-08-07T01:52:48.698Z,99.90
2018-08-07T01:55:22.975Z,99.90
2018-08-07T01:57:52.140Z,99.90
2018-08-07T02:00:21.371Z,99.90
2018-08-07T02:02:51.119Z,99.90
2018-08-07T02:05:20.340Z,99.90
2018-08-07T02:07:49.722Z,99.90
2018-08-07T02:10:19.692Z,99.90
2018-08-07T02:12:48.823Z,99.90
2018-08-07T02:15:18.099Z,99.90
2018-08-07T02:17:48.148Z,99.90
2018-08-07T02:20:18.179Z,99.90
2018-08-07T02:25:17.595Z,99.90
2018-08-07T02:27:47.410Z,99.90
2018-08-07T02:30:17.024Z,99.90
2018-08-07T02:32:46.420Z,99.90
2018-08-07T02:35:17.095Z,99.90
2018-08-07T02:37:48.125Z,99.90
2018-08-07T02:40:17.708Z,99.90
2018-08-07T02:42:46.987Z,99.90
2018-08-07T02:47:47.494Z,99.90
2018-08-07T02:50:18.472Z,99.90
2018-08-07T02:52:47.504Z,99.90
2018-08-07T02:55:16.811Z,99.90
2018-08-07T02:57:46.352Z,99.90
2018-08-07T03:00:22.989Z,99.90
2018-08-07T03:02:52.416Z,99.90
2018-08-07T03:05:22.023Z,99.90
2018-08-07T03:07:51.499Z,99.90
2018-08-07T03:10:20.719Z,99.90
2018-08-07T03:12:50.316Z,99.90
2018-08-07T03:15:20.515Z,99.90
2018-08-07T03:17:50.284Z,99.90
2018-08-07T03:20:19.863Z,99.90
2018-08-07T03:22:49.024Z,99.90
2018-08-07T03:25:18.289Z,99.90
2018-08-07T03:27:47.683Z,99.90
2018-08-07T03:30:19.470Z,99.90
2018-08-07T03:32:48.940Z,99.90
2018-08-07T03:35:18.493Z,99.90
2018-08-07T03:37:47.804Z,99.90
2018-08-07T03:40:19.099Z,99.90
2018-08-07T03:42:48.507Z,99.90
2018-08-07T03:45:19.220Z,99.90
2018-08-07T03:47:49.126Z,99.90
2018-08-07T03:50:18.562Z,99.90
2018-08-07T03:52:47.879Z,99.90
2018-08-07T03:55:18.393Z,99.90
2018-08-07T03:57:48.708Z,99.90
2018-08-07T04:00:19.518Z,99.90
2018-08-07T04:02:48.825Z,99.90
2018-08-07T04:05:17.760Z,99.90
2018-08-07T04:07:47.012Z,99.90
2018-08-07T04:10:17.563Z,99.90
2018-08-07T04:12:46.845Z,99.90
2018-08-07T04:15:17.115Z,99.90
2018-08-07T04:17:46.438Z,99.90
2018-08-07T04:20:17.970Z,99.90
2018-08-07T04:22:47.380Z,99.90
2018-08-07T04:25:17.044Z,99.90
2018-08-07T04:27:46.364Z,99.90
2018-08-07T04:30:16.957Z,99.90
2018-08-07T04:32:46.376Z,99.90
2018-08-07T04:35:16.172Z,99.90
2018-08-07T04:37:45.656Z,99.90
2018-08-07T04:40:14.760Z,99.90
2018-08-07T04:42:43.924Z,99.90
2018-08-07T04:45:14.729Z,99.90
2018-08-07T04:47:44.675Z,99.90
2018-08-07T04:50:14.011Z,99.90
2018-08-07T04:52:43.327Z,99.90
2018-08-07T04:55:12.948Z,99.90
2018-08-07T04:57:42.517Z,99.90
2018-08-07T05:00:14.847Z,99.90
2018-08-07T05:02:44.771Z,99.90
2018-08-07T05:05:14.068Z,99.90
2018-08-07T05:07:43.421Z,99.90
2018-08-07T05:10:15.322Z,99.90
2018-08-07T05:12:45.253Z,99.90
2018-08-07T05:15:14.604Z,99.90
2018-08-07T05:17:45.255Z,99.90
2018-08-07T05:20:14.406Z,99.90
2018-08-07T05:22:43.804Z,99.90
2018-08-07T05:25:13.644Z,99.90
2018-08-07T05:27:42.764Z,99.90
2018-08-07T05:30:13.783Z,99.90
2018-08-07T05:32:42.986Z,99.90
2018-08-07T05:35:13.125Z,99.90
2018-08-07T05:37:42.735Z,99.90
2018-08-07T05:40:12.277Z,99.90
2018-08-07T05:42:41.835Z,99.90
2018-08-07T05:45:12.616Z,99.90
2018-08-07T05:47:41.940Z,99.90
2018-08-07T05:50:13.577Z,99.90
2018-08-07T05:52:42.894Z,99.90
2018-08-07T05:55:12.118Z,99.90
2018-08-07T05:57:41.635Z,99.90
2018-08-07T06:00:16.510Z,99.90
2018-08-07T06:02:46.528Z,99.90
2018-08-07T06:05:16.199Z,99.90
2018-08-07T06:07:46.127Z,99.90
2018-08-07T06:10:15.167Z,99.90
2018-08-07T06:12:44.314Z,99.90
2018-08-07T06:15:16.232Z,99.90
2018-08-07T06:17:46.190Z,99.90
2018-08-07T06:20:15.489Z,99.90
2018-08-07T06:22:44.566Z,99.90
2018-08-07T06:25:14.133Z,99.90
2018-08-07T06:27:43.372Z,99.90
2018-08-07T06:30:17.830Z,99.90
2018-08-07T06:32:47.529Z,99.90
2018-08-07T06:35:17.132Z,99.90
2018-08-07T06:37:46.573Z,99.90
2018-08-07T06:40:15.687Z,99.90
2018-08-07T06:42:44.848Z,99.90
2018-08-07T06:45:15.244Z,99.90
2018-08-07T06:47:44.491Z,99.90
2018-08-07T06:50:15.612Z,99.90
2018-08-07T06:52:45.581Z,99.90
2018-08-07T06:55:14.830Z,99.90
2018-08-07T06:57:44.261Z,99.90
2018-08-07T07:00:22.494Z,99.90
2018-08-07T07:02:51.715Z,99.90
2018-08-07T07:05:20.783Z,99.90
2018-08-07T07:07:50.061Z,99.90
2018-08-07T07:10:19.352Z,99.90
2018-08-07T07:12:48.680Z,99.90
2018-08-07T07:15:18.296Z,99.90
2018-08-07T07:17:48.559Z,99.90
2018-08-07T07:20:18.546Z,99.90
2018-08-07T07:22:48.660Z,99.90
2018-08-07T07:25:17.481Z,99.90
2018-08-07T07:27:46.022Z,99.90
2018-08-07T07:30:17.572Z,99.90
2018-08-07T07:32:47.481Z,99.90
2018-08-07T07:35:16.545Z,99.90
2018-08-07T07:37:45.248Z,99.90
2018-08-07T07:40:13.947Z,99.90
2018-08-07T07:42:42.967Z,99.90
2018-08-07T07:45:14.818Z,99.90
2018-08-07T07:47:43.470Z,99.90
2018-08-07T07:50:19.394Z,99.90
2018-08-07T07:52:47.948Z,99.90
2018-08-07T07:55:17.208Z,99.90
2018-08-07T07:57:46.093Z,99.90
2018-08-07T08:00:24.597Z,99.90
2018-08-07T08:02:53.758Z,99.90
2018-08-07T08:05:23.903Z,99.90
2018-08-07T08:07:53.512Z,99.90
2018-08-07T08:10:22.217Z,99.90
2018-08-07T08:12:51.926Z,99.90
2018-08-07T08:15:21.188Z,99.90
2018-08-07T08:17:50.334Z,99.90
2018-08-07T08:20:21.619Z,99.90
2018-08-07T08:22:52.589Z,99.90
2018-08-07T08:25:22.934Z,99.90
2018-08-07T08:27:51.977Z,99.90
2018-08-07T08:30:20.916Z,99.90
2018-08-07T08:32:51.818Z,99.90
2018-08-07T08:35:21.179Z,99.90
2018-08-07T08:37:50.853Z,99.90
2018-08-07T08:40:25.904Z,99.90
2018-08-07T08:42:55.167Z,99.90
2018-08-07T08:45:28.795Z,99.90
2018-08-07T08:47:59.183Z,99.90
2018-08-07T08:50:28.861Z,99.90
2018-08-07T08:52:58.128Z,99.90
2018-08-07T08:55:27.015Z,99.90
2018-08-07T08:57:56.051Z,99.90
2018-08-07T09:00:28.458Z,99.90
2018-08-07T09:05:27.080Z,99.90
2018-08-07T09:07:56.986Z,99.90
2018-08-07T09:10:27.598Z,99.90
2018-08-07T09:12:57.348Z,99.90
2018-08-07T09:15:28.373Z,99.90
2018-08-07T09:17:57.064Z,99.90
2018-08-07T09:20:28.769Z,99.90
2018-08-07T09:22:58.321Z,99.90
2018-08-07T09:25:28.884Z,99.90
2018-08-07T09:27:57.737Z,99.90
2018-08-07T09:30:28.270Z,99.90
2018-08-07T09:32:57.899Z,99.90
2018-08-07T09:35:26.999Z,99.90
2018-08-07T09:37:56.580Z,99.90
2018-08-07T09:42:56.159Z,99.90
2018-08-07T09:45:28.024Z,99.90
2018-08-07T09:47:56.828Z,99.90
2018-08-07T09:50:26.171Z,99.90
2018-08-07T09:52:55.032Z,95.90
2018-08-07T09:55:24.137Z,94.90
2018-08-07T09:57:53.741Z,95.10
2018-08-07T10:00:28.280Z,99.00
2018-08-07T10:03:01.119Z,96.10
2018-08-07T10:05:31.317Z,93.80
2018-08-07T10:07:59.700Z,93.70
2018-08-07T10:10:28.455Z,92.50
2018-08-07T10:12:57.962Z,94.60
2018-08-07T10:15:26.411Z,90.20
2018-08-07T10:17:55.400Z,91.20
2018-08-07T10:20:24.251Z,90.70
2018-08-07T10:22:53.180Z,91.40
2018-08-07T10:25:21.836Z,90.70
2018-08-07T10:27:50.486Z,92.10
2018-08-07T10:30:21.674Z,90.20
2018-08-07T10:32:50.918Z,89.40
2018-08-07T10:35:19.283Z,84.70
2018-08-07T10:37:48.420Z,82.90
2018-08-07T10:40:19.527Z,84.90
2018-08-07T10:42:48.655Z,86.30
2018-08-07T10:45:19.045Z,82.40
2018-08-07T10:47:47.532Z,81.90
2018-08-07T10:50:18.355Z,83.00
2018-08-07T10:52:47.896Z,85.50
2018-08-07T10:55:16.830Z,82.80
2018-08-07T10:57:47.044Z,79.30
2018-08-07T11:00:21.032Z,82.20
2018-08-07T11:02:50.525Z,78.90
2018-08-07T11:05:19.559Z,79.80
2018-08-07T11:07:48.518Z,76.40
2018-08-07T11:10:17.355Z,70.50
2018-08-07T11:12:45.905Z,80.30
2018-08-07T11:15:21.256Z,75.70
2018-08-07T11:17:50.661Z,69.60
2018-08-07T11:20:19.509Z,74.80
2018-08-07T11:22:49.180Z,68.30
2018-08-07T11:25:19.097Z,73.30
2018-08-07T11:27:47.766Z,79.60
2018-08-07T11:30:19.360Z,68.50
2018-08-07T11:32:48.652Z,67.60
2018-08-07T11:35:17.785Z,66.50
2018-08-07T11:37:48.239Z,71.00
2018-08-07T11:40:19.680Z,79.10
2018-08-07T11:42:49.021Z,73.00
2018-08-07T11:45:18.784Z,65.90
2018-08-07T11:47:47.406Z,67.00
2018-08-07T11:50:18.459Z,68.20
2018-08-07T11:52:47.722Z,66.80
2018-08-07T11:55:17.497Z,62.50
2018-08-07T11:57:47.172Z,67.90
2018-08-07T12:00:24.655Z,64.80
2018-08-07T12:02:53.327Z,61.70
2018-08-07T12:05:21.937Z,63.00
2018-08-07T12:07:50.997Z,64.60
2018-08-07T12:10:20.593Z,62.80
2018-08-07T12:12:49.334Z,60.30
2018-08-07T12:15:19.732Z,64.60
2018-08-07T12:17:49.013Z,65.80
2018-08-07T12:20:17.438Z,67.30
2018-08-07T12:22:46.260Z,64.40
2018-08-07T12:25:15.700Z,64.90
2018-08-07T12:27:44.485Z,59.70
2018-08-07T12:30:25.005Z,62.50
2018-08-07T12:32:53.480Z,57.50
2018-08-07T12:35:21.961Z,64.80
2018-08-07T12:37:51.534Z,62.40
2018-08-07T12:40:23.477Z,66.70
2018-08-07T12:42:53.824Z,62.70
2018-08-07T12:45:22.539Z,59.50
2018-08-07T12:47:51.242Z,58.30
2018-08-07T12:50:19.963Z,61.60
2018-08-07T12:52:48.437Z,58.20
2018-08-07T12:55:19.523Z,58.60
2018-08-07T12:57:48.646Z,57.70
2018-08-07T13:00:21.459Z,59.40
2018-08-07T13:02:50.037Z,58.50
2018-08-07T13:05:18.640Z,64.20
2018-08-07T13:07:47.490Z,61.00
2018-08-07T13:10:17.644Z,63.40
2018-08-07T13:12:47.135Z,60.40
2018-08-07T13:15:16.920Z,60.30
2018-08-07T13:17:46.514Z,63.10
2018-08-07T13:20:15.916Z,67.00
2018-08-07T13:22:45.114Z,62.30
2018-08-07T13:25:15.879Z,59.50
2018-08-07T13:27:44.655Z,67.20
2018-08-07T13:30:18.080Z,67.20
2018-08-07T13:32:46.985Z,67.20
2018-08-07T13:35:16.259Z,63.90
2018-08-07T13:37:46.550Z,67.20
2018-08-07T13:40:17.358Z,66.50
2018-08-07T13:42:46.105Z,66.30
2018-08-07T13:45:16.608Z,70.80
2018-08-07T13:47:45.466Z,66.70
2018-08-07T13:50:20.665Z,69.50
2018-08-07T13:52:49.940Z,67.20
2018-08-07T13:55:19.454Z,69.00
2018-08-07T13:57:48.565Z,69.30
2018-08-07T14:00:25.768Z,69.30
2018-08-07T14:02:54.891Z,71.90
2018-08-07T14:05:23.940Z,73.60
2018-08-07T14:07:54.178Z,73.70
2018-08-07T14:10:24.180Z,71.70
2018-08-07T14:12:52.623Z,72.30
2018-08-07T14:15:22.232Z,73.10
2018-08-07T14:17:51.007Z,75.60
2018-08-07T14:20:20.004Z,74.20
2018-08-07T14:23:21.533Z,74.50
2018-08-07T14:25:50.545Z,73.10
2018-08-07T14:28:19.033Z,74.00
2018-08-07T14:30:48.644Z,76.80
2018-08-07T14:33:17.536Z,76.20
2018-08-07T14:35:46.284Z,76.10
2018-08-07T14:38:14.905Z,72.00
2018-08-07T14:40:43.469Z,69.60
2018-08-07T14:43:12.081Z,74.30
2018-08-07T14:45:41.090Z,76.50
2018-08-07T14:48:10.129Z,74.80
2018-08-07T14:50:38.608Z,73.00
2018-08-07T14:53:07.270Z,74.40
2018-08-07T14:55:35.882Z,72.80
2018-08-07T14:58:05.397Z,72.30
2018-08-07T15:00:33.843Z,76.60
2018-08-07T15:03:02.299Z,72.80
2018-08-07T15:05:30.791Z,76.60
2018-08-07T15:07:59.585Z,72.90
2018-08-07T15:10:28.633Z,72.90
2018-08-07T15:12:57.320Z,74.60
2018-08-07T15:15:27.961Z,76.70
2018-08-07T15:17:58.140Z,75.70
2018-08-07T15:20:28.465Z,75.40
2018-08-07T15:22:57.497Z,75.90
2018-08-07T15:25:26.378Z,76.40
2018-08-07T15:27:55.258Z,74.50
2018-08-07T15:30:28.772Z,78.10
2018-08-07T15:32:57.787Z,77.00
2018-08-07T15:35:28.287Z,77.00
2018-08-07T15:37:57.157Z,77.40
2018-08-07T15:40:25.622Z,78.40
2018-08-07T15:42:54.253Z,79.70
2018-08-07T15:45:24.336Z,78.70
2018-08-07T15:47:53.237Z,78.80
2018-08-07T15:50:22.782Z,80.80
2018-08-07T15:52:53.264Z,81.30
2018-08-07T15:55:23.802Z,77.70
2018-08-07T15:57:53.163Z,77.40
2018-08-07T16:00:28.256Z,79.20
2018-08-07T16:02:59.319Z,80.10
2018-08-07T16:05:28.622Z,79.10
2018-08-07T16:07:57.850Z,80.60
2018-08-07T16:10:27.464Z,85.10
2018-08-07T16:12:56.801Z,85.80
2018-08-07T16:15:26.156Z,86.20
2018-08-07T16:17:55.608Z,87.60
2018-08-07T16:20:25.023Z,87.30
2018-08-07T16:22:54.518Z,89.20
2018-08-07T16:25:23.747Z,89.80
2018-08-07T16:27:52.944Z,91.00
2018-08-07T16:30:25.929Z,91.70
2018-08-07T16:32:55.278Z,90.80
2018-08-07T16:35:24.882Z,91.50
2018-08-07T16:37:54.286Z,91.90
2018-08-07T16:40:24.622Z,92.40
2018-08-07T16:42:54.386Z,93.10
2018-08-07T16:45:24.262Z,92.30
2018-08-07T16:47:53.470Z,92.70
2018-08-07T16:50:26.062Z,93.80
2018-08-07T16:52:56.086Z,94.00
2018-08-07T16:55:26.710Z,95.80
2018-08-07T16:57:56.003Z,95.10
2018-08-07T17:00:25.262Z,96.70
2018-08-07T17:02:54.824Z,99.20
2018-08-07T17:05:24.164Z,97.50
2018-08-07T17:07:53.408Z,97.40
2018-08-07T17:10:25.000Z,97.70
2018-08-07T17:12:54.271Z,97.60
2018-08-07T17:15:23.422Z,98.30
2018-08-07T17:17:52.703Z,99.50
2018-08-07T17:20:23.258Z,99.90
2018-08-07T17:22:53.023Z,99.20
2018-08-07T17:25:22.877Z,99.90
2018-08-07T17:27:52.315Z,99.90
2018-08-07T17:30:22.945Z,99.90
2018-08-07T17:32:52.664Z,99.90
2018-08-07T17:35:23.381Z,99.90
2018-08-07T17:37:53.982Z,99.90
2018-08-07T17:40:24.679Z,99.90
2018-08-07T17:42:54.299Z,99.90
2018-08-07T17:45:23.558Z,99.90
2018-08-07T17:47:53.137Z,99.90
2018-08-07T17:50:23.453Z,99.90
2018-08-07T17:52:53.076Z,99.90
2018-08-07T17:55:22.429Z,99.90
2018-08-07T17:57:52.487Z,99.90
2018-08-07T18:00:23.224Z,99.90
2018-08-07T18:02:52.471Z,99.90
2018-08-07T18:05:22.177Z,99.90
2018-08-07T18:07:52.901Z,99.90
2018-08-07T18:10:23.040Z,99.90
2018-08-07T18:12:52.489Z,99.90
2018-08-07T18:15:22.786Z,99.90
2018-08-07T18:17:52.518Z,99.90
2018-08-07T18:20:23.931Z,99.90
2018-08-07T18:22:53.360Z,99.90
2018-08-07T18:25:23.654Z,99.90
2018-08-07T18:27:52.768Z,99.90
2018-08-07T18:30:23.582Z,99.90
2018-08-07T18:32:52.972Z,99.90
2018-08-07T18:35:23.358Z,99.90
2018-08-07T18:37:52.598Z,99.90
2018-08-07T18:40:21.590Z,99.90
2018-08-07T18:42:51.032Z,99.90
2018-08-07T18:45:20.400Z,99.90
2018-08-07T18:47:51.167Z,99.90
2018-08-07T18:50:22.336Z,99.90
2018-08-07T18:52:51.607Z,99.90
2018-08-07T18:55:21.204Z,99.90
2018-08-07T18:57:51.082Z,99.90
2018-08-07T19:00:24.504Z,99.90
2018-08-07T19:02:54.208Z,99.90
2018-08-07T19:05:24.323Z,99.90
2018-08-07T19:07:53.400Z,99.90
2018-08-07T19:10:22.474Z,99.90
2018-08-07T19:12:51.673Z,99.90
2018-08-07T19:15:21.653Z,99.90
2018-08-07T19:17:51.024Z,99.90
2018-08-07T19:20:21.786Z,99.90
2018-08-07T19:22:51.294Z,99.90
2018-08-07T19:25:20.702Z,99.90
2018-08-07T19:27:50.238Z,99.90
2018-08-07T19:30:22.271Z,99.90
2018-08-07T19:32:51.471Z,99.90
2018-08-07T19:35:20.828Z,99.90
2018-08-07T19:37:50.107Z,99.90
2018-08-07T19:40:20.270Z,99.90
2018-08-07T19:42:50.537Z,99.90
2018-08-07T19:45:20.039Z,99.90
2018-08-07T19:47:49.356Z,99.90
2018-08-07T19:50:20.473Z,99.90
2018-08-07T19:52:49.942Z,99.90
2018-08-07T19:55:20.621Z,99.90
2018-08-07T19:57:50.021Z,99.90
2018-08-07T20:00:24.644Z,99.90
2018-08-07T20:02:53.984Z,99.90
2018-08-07T20:05:23.551Z,99.90
2018-08-07T20:07:53.705Z,99.90
2018-08-07T20:10:23.396Z,99.90
2018-08-07T20:12:53.045Z,99.90
2018-08-07T20:15:29.347Z,99.90
2018-08-07T20:17:58.638Z,99.90
2018-08-07T20:20:28.111Z,99.90
2018-08-07T20:22:57.538Z,99.90
2018-08-07T20:25:27.583Z,99.90
2018-08-07T20:27:56.890Z,99.90
2018-08-07T20:30:26.533Z,99.90
2018-08-07T20:32:57.347Z,99.90
2018-08-07T20:35:27.154Z,99.90
2018-08-07T20:37:56.314Z,99.90
2018-08-07T20:40:26.790Z,99.90
2018-08-07T20:42:57.886Z,99.90
2018-08-07T20:45:27.038Z,99.90
2018-08-07T20:47:57.165Z,99.90
2018-08-07T20:50:27.097Z,99.90
2018-08-07T20:52:57.024Z,99.90
2018-08-07T20:55:26.671Z,99.90
2018-08-07T20:57:56.431Z,99.90
2018-08-07T21:00:26.884Z,99.90
2018-08-07T21:02:57.226Z,99.90
2018-08-07T21:05:26.202Z,99.90
2018-08-07T21:07:55.399Z,99.90
2018-08-07T21:10:26.586Z,99.90
2018-08-07T21:12:56.300Z,99.90
2018-08-07T21:15:25.694Z,99.90
2018-08-07T21:17:55.090Z,99.90
2018-08-07T21:20:25.000Z,99.90
2018-08-07T21:22:54.407Z,99.90
2018-08-07T21:25:24.599Z,99.90
2018-08-07T21:27:55.996Z,99.90
2018-08-07T21:30:26.975Z,99.90
2018-08-07T21:32:56.519Z,99.90
2018-08-07T21:35:25.637Z,99.90
2018-08-07T21:37:55.031Z,99.90
2018-08-07T21:40:25.462Z,99.90
2018-08-07T21:42:56.234Z,99.90
2018-08-07T21:45:25.426Z,99.90
2018-08-07T21:47:55.275Z,99.90
2018-08-07T21:50:26.541Z,99.90
2018-08-07T21:52:55.611Z,99.90
2018-08-07T21:55:24.852Z,99.90
2018-08-07T21:57:55.276Z,99.90
2018-08-07T22:00:36.414Z,99.90
2018-08-07T22:03:05.560Z,99.90
2018-08-07T22:05:34.893Z,99.90
2018-08-07T22:08:03.929Z,99.90
2018-08-07T22:10:33.090Z,99.90
2018-08-07T22:13:02.552Z,99.90
2018-08-07T22:15:31.612Z,99.90
2018-08-07T22:18:00.839Z,99.90
2018-08-07T22:20:29.982Z,99.90
2018-08-07T22:22:59.346Z,99.90
2018-08-07T22:25:28.659Z,99.90
2018-08-07T22:27:57.895Z,99.90
2018-08-07T22:30:27.143Z,99.90
2018-08-07T22:32:56.292Z,99.90
2018-08-07T22:35:25.535Z,99.90
2018-08-07T22:37:54.657Z,99.90
2018-08-07T22:40:24.141Z,99.90
2018-08-07T22:42:53.383Z,99.90
2018-08-07T22:45:22.713Z,99.90
2018-08-07T22:47:51.893Z,99.90
2018-08-07T22:50:21.309Z,99.90
2018-08-07T22:52:50.624Z,99.90
2018-08-07T22:55:20.490Z,99.90
2018-08-07T22:57:49.832Z,99.90
2018-08-07T23:00:21.129Z,99.90
2018-08-07T23:02:50.097Z,99.90
2018-08-07T23:05:19.987Z,99.90
2018-08-07T23:07:49.321Z,99.90
2018-08-07T23:10:19.920Z,99.90
2018-08-07T23:12:49.171Z,99.90
2018-08-07T23:15:19.746Z,99.90
2018-08-07T23:17:49.035Z,99.90
2018-08-07T23:20:19.396Z,99.90
2018-08-07T23:22:48.928Z,99.90
2018-08-07T23:25:18.268Z,99.90
2018-08-07T23:27:47.455Z,99.90
2018-08-07T23:30:17.856Z,99.90
2018-08-07T23:32:47.203Z,99.90
2018-08-07T23:35:16.979Z,99.90
2018-08-07T23:37:46.033Z,99.90
2018-08-07T23:40:15.487Z,99.90
2018-08-07T23:42:45.409Z,99.90
2018-08-07T23:45:15.690Z,99.90
2018-08-07T23:47:45.433Z,99.90
2018-08-07T23:50:15.031Z,99.90
2018-08-07T23:52:44.271Z,99.90
2018-08-07T23:55:13.616Z,99.90
2018-08-07T23:57:42.692Z,99.90
